createdAt,value
2018-08-18T00:00:45.170Z,15.2
2018-08-18T00:01:54.466Z,15.21
2018-08-18T00:03:03.768Z,15.2
2018-08-18T00:04:13.877Z,15.11
2018-08-18T00:05:23.722Z,15.14
2018-08-18T00:06:33.569Z,15.09
2018-08-18T00:07:43.133Z,15.01
2018-08-18T00:08:52.975Z,15.11
2018-08-18T00:10:02.819Z,15.03
2018-08-18T00:11:12.663Z,15.06
2018-08-18T00:12:22.227Z,14.99
2018-08-18T00:13:32.069Z,15.06
2018-08-18T00:14:41.910Z,14.99
2018-08-18T00:15:51.478Z,14.98
2018-08-18T00:17:01.330Z,14.99
2018-08-18T00:18:11.169Z,15.02
2018-08-18T00:19:20.474Z,14.96
2018-08-18T00:20:30.043Z,14.89
2018-08-18T00:21:40.157Z,15.06
2018-08-18T00:22:49.459Z,14.99
2018-08-18T00:23:59.358Z,15.02
2018-08-18T00:25:09.464Z,15.01
2018-08-18T00:26:19.042Z,14.96
2018-08-18T00:27:28.617Z,14.96
2018-08-18T00:28:37.931Z,14.88
2018-08-18T00:29:47.502Z,14.92
2018-08-18T00:30:56.811Z,14.88
2018-08-18T00:32:06.920Z,14.89
2018-08-18T00:33:16.497Z,14.8
2018-08-18T00:34:26.551Z,14.84
2018-08-18T00:35:36.246Z,14.75
2018-08-18T00:36:45.824Z,14.68
2018-08-18T00:37:54.857Z,14.77
2018-08-18T00:39:04.426Z,14.64
2018-08-18T00:40:14.279Z,14.77
2018-08-18T00:41:24.119Z,14.81
2018-08-18T00:42:33.420Z,14.77
2018-08-18T00:43:43.271Z,14.72
2018-08-18T00:44:53.383Z,14.62
2018-08-18T00:46:02.950Z,14.69
2018-08-18T00:47:12.255Z,14.65
2018-08-18T00:48:22.093Z,14.78
2018-08-18T00:49:31.389Z,14.64
2018-08-18T00:50:41.233Z,14.65
2018-08-18T00:51:51.075Z,14.61
2018-08-18T00:53:00.908Z,14.6
2018-08-18T00:54:11.020Z,14.64
2018-08-18T00:55:20.860Z,14.64
2018-08-18T00:56:30.699Z,14.54
2018-08-18T00:57:40.280Z,14.54
2018-08-18T00:58:50.127Z,14.61
2018-08-18T00:59:59.710Z,14.62
2018-08-18T01:01:08.744Z,14.58
2018-08-18T01:02:18.045Z,14.57
2018-08-18T01:03:27.884Z,14.54
2018-08-18T01:04:37.729Z,14.57
2018-08-18T01:05:47.298Z,14.62
2018-08-18T01:06:56.598Z,14.55
2018-08-18T01:08:05.899Z,14.57
2018-08-18T01:09:15.201Z,14.52
2018-08-18T01:10:25.096Z,14.5
2018-08-18T01:11:35.465Z,14.4
2018-08-18T01:12:46.564Z,14.33
2018-08-18T01:13:56.934Z,14.36
2018-08-18T01:15:07.538Z,14.28
2018-08-18T01:16:16.794Z,14.36
2018-08-18T01:17:26.094Z,14.28
2018-08-18T01:18:35.665Z,14.37
2018-08-18T01:19:45.769Z,14.28
2018-08-18T01:20:55.875Z,14.27
2018-08-18T01:22:05.716Z,14.29
2018-08-18T01:23:15.559Z,14.4
2018-08-18T01:24:25.394Z,14.29
2018-08-18T01:25:34.692Z,14.32
2018-08-18T01:26:43.995Z,14.33
2018-08-18T01:27:53.303Z,14.29
2018-08-18T01:29:03.422Z,14.39
2018-08-18T01:30:12.726Z,14.32
2018-08-18T01:31:22.293Z,14.32
2018-08-18T01:32:31.866Z,14.28
2018-08-18T01:33:41.706Z,14.25
2018-08-18T01:34:51.547Z,14.24
2018-08-18T01:36:01.127Z,14.2
2018-08-18T01:37:10.969Z,14.22
2018-08-18T01:38:20.810Z,14.2
2018-08-18T01:39:30.376Z,14.18
2018-08-18T01:40:39.674Z,14.22
2018-08-18T01:41:48.992Z,14.17
2018-08-18T01:42:58.839Z,14.22
2018-08-18T01:44:08.145Z,14.17
2018-08-18T01:45:17.763Z,14.14
2018-08-18T01:46:26.525Z,14.15
2018-08-18T01:47:36.104Z,14.17
2018-08-18T01:48:45.670Z,14.12
2018-08-18T01:49:55.239Z,14.17
2018-08-18T01:51:05.350Z,14.14
2018-08-18T01:52:14.379Z,14
2018-08-18T01:53:23.682Z,14.12
2018-08-18T01:54:33.516Z,14.1
2018-08-18T01:55:43.357Z,14.06
2018-08-18T01:56:53.195Z,14.04
2018-08-18T01:58:03.050Z,14.02
2018-08-18T01:59:12.622Z,14.1
2018-08-18T02:00:21.926Z,14.03
2018-08-18T02:01:32.041Z,14.02
2018-08-18T02:02:41.878Z,14.06
2018-08-18T02:03:51.723Z,14.04
2018-08-18T02:05:00.755Z,14.09
2018-08-18T02:06:10.333Z,14.04
2018-08-18T02:07:20.175Z,14.06
2018-08-18T02:08:29.485Z,14.03
2018-08-18T02:09:39.058Z,14.02
2018-08-18T02:10:48.363Z,14.07
2018-08-18T02:11:58.203Z,13.99
2018-08-18T02:13:08.043Z,14
2018-08-18T02:14:17.898Z,13.99
2018-08-18T02:15:27.743Z,13.99
2018-08-18T02:16:37.636Z,14.02
2018-08-18T02:17:47.471Z,14
2018-08-18T02:18:57.047Z,14.02
2018-08-18T02:20:07.349Z,13.97
2018-08-18T02:21:17.475Z,13.99
2018-08-18T02:22:27.065Z,14.02
2018-08-18T02:23:36.362Z,13.95
2018-08-18T02:24:45.937Z,14.04
2018-08-18T02:25:56.107Z,13.96
2018-08-18T02:27:06.219Z,13.99
2018-08-18T02:28:15.518Z,13.88
2018-08-18T02:29:25.360Z,13.84
2018-08-18T02:30:34.658Z,13.77
2018-08-18T02:31:44.820Z,13.78
2018-08-18T02:32:54.670Z,13.82
2018-08-18T02:34:03.975Z,13.77
2018-08-18T02:35:13.285Z,13.78
2018-08-18T02:36:23.129Z,13.84
2018-08-18T02:37:32.968Z,13.78
2018-08-18T02:38:42.812Z,13.75
2018-08-18T02:39:52.677Z,13.71
2018-08-18T02:41:02.912Z,13.78
2018-08-18T02:42:12.501Z,13.71
2018-08-18T02:43:22.394Z,13.75
2018-08-18T02:44:31.970Z,13.71
2018-08-18T02:45:42.080Z,13.78
2018-08-18T02:46:51.385Z,13.73
2018-08-18T02:48:00.952Z,13.78
2018-08-18T02:49:10.309Z,13.78
2018-08-18T02:50:19.887Z,13.73
2018-08-18T02:51:29.731Z,13.75
2018-08-18T02:52:39.840Z,13.75
2018-08-18T02:53:49.684Z,13.78
2018-08-18T02:54:59.322Z,13.69
2018-08-18T02:56:09.165Z,13.7
2018-08-18T02:57:18.465Z,13.69
2018-08-18T02:58:28.061Z,13.63
2018-08-18T02:59:37.676Z,13.69
2018-08-18T03:00:46.985Z,13.62
2018-08-18T03:01:56.556Z,13.59
2018-08-18T03:03:06.411Z,13.6
2018-08-18T03:04:15.448Z,13.6
2018-08-18T03:05:24.487Z,13.66
2018-08-18T03:06:33.792Z,13.6
2018-08-18T03:07:43.435Z,13.63
2018-08-18T03:08:53.388Z,13.62
2018-08-18T03:10:03.236Z,13.64
2018-08-18T03:11:12.804Z,13.52
2018-08-18T03:12:22.166Z,13.59
2018-08-18T03:13:31.739Z,13.55
2018-08-18T03:14:41.860Z,13.55
2018-08-18T03:15:51.978Z,13.59
2018-08-18T03:17:01.829Z,13.6
2018-08-18T03:18:11.410Z,13.62
2018-08-18T03:19:21.255Z,13.59
2018-08-18T03:20:31.094Z,13.52
2018-08-18T03:21:40.937Z,13.54
2018-08-18T03:22:50.783Z,13.6
2018-08-18T03:24:00.642Z,13.54
2018-08-18T03:25:10.484Z,13.63
2018-08-18T03:26:19.781Z,13.6
2018-08-18T03:27:29.353Z,13.59
2018-08-18T03:28:38.382Z,13.55
2018-08-18T03:29:48.550Z,13.55
2018-08-18T03:30:58.124Z,13.54
2018-08-18T03:32:07.981Z,13.55
2018-08-18T03:33:17.566Z,13.6
2018-08-18T03:34:27.146Z,13.59
2018-08-18T03:35:36.721Z,13.54
2018-08-18T03:36:46.295Z,13.49
2018-08-18T03:37:55.878Z,13.48
2018-08-18T03:39:05.716Z,13.51
2018-08-18T03:40:15.287Z,13.55
2018-08-18T03:41:24.591Z,13.54
2018-08-18T03:42:34.163Z,13.57
2018-08-18T03:43:44.015Z,13.41
2018-08-18T03:44:54.130Z,13.62
2018-08-18T03:46:03.974Z,13.51
2018-08-18T03:47:13.004Z,13.49
2018-08-18T03:48:22.850Z,13.54
2018-08-18T03:49:31.881Z,13.49
2018-08-18T03:50:41.991Z,13.54
2018-08-18T03:51:52.110Z,13.48
2018-08-18T03:53:01.421Z,13.49
2018-08-18T03:54:11.285Z,13.48
2018-08-18T03:55:20.882Z,13.51
2018-08-18T03:56:30.721Z,13.49
2018-08-18T03:57:40.019Z,13.59
2018-08-18T03:58:49.593Z,13.51
2018-08-18T03:59:59.427Z,13.45
2018-08-18T04:01:08.996Z,13.42
2018-08-18T04:02:18.842Z,13.48
2018-08-18T04:03:28.698Z,13.49
2018-08-18T04:04:38.535Z,13.48
2018-08-18T04:05:48.109Z,13.46
2018-08-18T04:06:57.681Z,13.39
2018-08-18T04:08:07.794Z,13.36
2018-08-18T04:09:17.455Z,13.33
2018-08-18T04:10:27.918Z,13.33
2018-08-18T04:11:37.763Z,13.38
2018-08-18T04:12:47.065Z,13.36
2018-08-18T04:13:56.634Z,13.32
2018-08-18T04:15:05.938Z,13.33
2018-08-18T04:16:15.293Z,13.33
2018-08-18T04:17:25.140Z,13.38
2018-08-18T04:18:35.258Z,13.28
2018-08-18T04:19:45.095Z,13.36
2018-08-18T04:20:54.662Z,13.41
2018-08-18T04:22:04.825Z,13.39
2018-08-18T04:23:14.395Z,13.36
2018-08-18T04:24:23.978Z,13.3
2018-08-18T04:25:33.825Z,13.41
2018-08-18T04:26:43.122Z,13.32
2018-08-18T04:27:52.694Z,13.3
2018-08-18T04:29:02.003Z,13.29
2018-08-18T04:30:11.303Z,13.29
2018-08-18T04:31:21.415Z,13.32
2018-08-18T04:32:31.258Z,13.33
2018-08-18T04:33:40.889Z,13.32
2018-08-18T04:34:50.736Z,13.32
2018-08-18T04:36:00.854Z,13.38
2018-08-18T04:37:10.157Z,13.32
2018-08-18T04:38:20.002Z,13.42
2018-08-18T04:39:29.849Z,13.39
2018-08-18T04:40:39.153Z,13.33
2018-08-18T04:41:48.995Z,13.33
2018-08-18T04:42:58.567Z,13.32
2018-08-18T04:44:08.686Z,13.46
2018-08-18T04:45:18.589Z,13.36
2018-08-18T04:46:28.699Z,13.36
2018-08-18T04:47:38.001Z,13.29
2018-08-18T04:48:47.850Z,13.36
2018-08-18T04:49:57.966Z,13.39
2018-08-18T04:51:07.277Z,13.46
2018-08-18T04:52:17.123Z,13.46
2018-08-18T04:53:26.978Z,13.48
2018-08-18T04:54:36.551Z,13.42
2018-08-18T04:55:46.123Z,13.45
2018-08-18T04:56:56.146Z,13.46
2018-08-18T04:58:06.568Z,13.46
2018-08-18T04:59:16.897Z,13.46
2018-08-18T05:00:26.668Z,13.48
2018-08-18T05:01:36.781Z,13.45
2018-08-18T05:02:46.629Z,13.48
2018-08-18T05:03:56.203Z,13.48
2018-08-18T05:05:06.133Z,13.51
2018-08-18T05:06:16.533Z,13.6
2018-08-18T05:07:25.841Z,13.41
2018-08-18T05:08:35.995Z,13.41
2018-08-18T05:09:45.566Z,13.62
2018-08-18T05:10:55.140Z,13.57
2018-08-18T05:12:04.718Z,13.51
2018-08-18T05:13:14.559Z,13.52
2018-08-18T05:14:24.129Z,13.48
2018-08-18T05:15:33.980Z,13.49
2018-08-18T05:16:43.555Z,13.54
2018-08-18T05:17:52.858Z,13.57
2018-08-18T05:19:03.050Z,13.57
2018-08-18T05:20:13.073Z,13.54
2018-08-18T05:21:23.185Z,13.64
2018-08-18T05:22:33.024Z,13.63
2018-08-18T05:23:42.332Z,13.64
2018-08-18T05:24:51.904Z,13.73
2018-08-18T05:26:01.793Z,13.71
2018-08-18T05:27:11.095Z,13.66
2018-08-18T05:28:20.395Z,13.75
2018-08-18T05:29:29.697Z,13.7
2018-08-18T05:30:39.272Z,13.75
2018-08-18T05:31:49.114Z,13.75
2018-08-18T05:32:58.695Z,13.71
2018-08-18T05:34:08.593Z,13.78
2018-08-18T05:35:18.708Z,13.7
2018-08-18T05:36:28.667Z,13.82
2018-08-18T05:37:38.898Z,13.79
2018-08-18T05:38:48.748Z,13.89
2018-08-18T05:39:58.316Z,13.91
2018-08-18T05:41:07.890Z,13.87
2018-08-18T05:42:17.767Z,13.85
2018-08-18T05:43:27.350Z,14.02
2018-08-18T05:44:37.474Z,13.96
2018-08-18T05:45:47.315Z,14.02
2018-08-18T05:46:56.886Z,14
2018-08-18T05:48:06.190Z,13.97
2018-08-18T05:49:16.034Z,14.09
2018-08-18T05:50:25.884Z,14.09
2018-08-18T05:51:35.453Z,14.04
2018-08-18T05:52:45.295Z,14.03
2018-08-18T05:53:55.408Z,14.07
2018-08-18T05:55:05.255Z,14.06
2018-08-18T05:56:14.556Z,14.1
2018-08-18T05:57:23.593Z,14.18
2018-08-18T05:58:33.436Z,14.21
2018-08-18T05:59:43.671Z,14.18
2018-08-18T06:00:54.111Z,14.28
2018-08-18T06:02:03.964Z,14.25
2018-08-18T06:03:13.540Z,14.36
2018-08-18T06:04:23.648Z,14.33
2018-08-18T06:05:33.803Z,14.25
2018-08-18T06:06:43.407Z,14.35
2018-08-18T06:07:53.529Z,14.51
2018-08-18T06:09:03.203Z,14.51
2018-08-18T06:10:13.046Z,14.46
2018-08-18T06:11:22.886Z,14.58
2018-08-18T06:12:32.510Z,14.61
2018-08-18T06:13:41.811Z,14.64
2018-08-18T06:14:51.662Z,14.65
2018-08-18T06:16:01.509Z,14.73
2018-08-18T06:17:11.353Z,14.75
2018-08-18T06:18:21.193Z,14.58
2018-08-18T06:19:30.496Z,14.77
2018-08-18T06:20:40.334Z,14.72
2018-08-18T06:21:49.636Z,14.65
2018-08-18T06:22:59.490Z,14.78
2018-08-18T06:24:09.381Z,14.77
2018-08-18T06:25:19.227Z,14.8
2018-08-18T06:26:29.067Z,14.86
2018-08-18T06:27:38.651Z,15.03
2018-08-18T06:28:48.511Z,14.92
2018-08-18T06:29:58.094Z,15.11
2018-08-18T06:31:07.950Z,15.07
2018-08-18T06:32:17.519Z,15.1
2018-08-18T06:33:27.358Z,15.13
2018-08-18T06:34:37.766Z,15.28
2018-08-18T06:35:47.927Z,15.28
2018-08-18T06:36:57.502Z,15.25
2018-08-18T06:38:07.353Z,15.29
2018-08-18T06:39:17.473Z,15.32
2018-08-18T06:40:27.317Z,15.29
2018-08-18T06:41:37.082Z,15.43
2018-08-18T06:42:47.081Z,15.39
2018-08-18T06:43:56.930Z,15.44
2018-08-18T06:45:06.510Z,15.47
2018-08-18T06:46:16.095Z,15.43
2018-08-18T06:47:26.200Z,15.44
2018-08-18T06:48:36.046Z,15.56
2018-08-18T06:49:46.169Z,15.5
2018-08-18T06:50:56.016Z,15.57
2018-08-18T06:52:05.859Z,15.64
2018-08-18T06:53:15.472Z,15.65
2018-08-18T06:54:24.943Z,15.68
2018-08-18T06:55:34.853Z,15.65
2018-08-18T06:56:43.882Z,15.71
2018-08-18T06:57:53.450Z,15.72
2018-08-18T06:59:03.290Z,15.78
2018-08-18T07:00:12.867Z,15.8
2018-08-18T07:01:22.438Z,15.93
2018-08-18T07:02:31.738Z,15.96
2018-08-18T07:03:41.588Z,15.97
2018-08-18T07:04:51.162Z,16.01
2018-08-18T07:06:00.958Z,16.07
2018-08-18T07:07:10.825Z,16.2
2018-08-18T07:08:20.668Z,16.15
2018-08-18T07:09:30.523Z,16.17
2018-08-18T07:10:40.362Z,16.23
2018-08-18T07:11:50.209Z,16.17
2018-08-18T07:13:00.327Z,16.25
2018-08-18T07:14:09.906Z,16.3
2018-08-18T07:15:20.030Z,16.43
2018-08-18T07:16:29.602Z,16.38
2018-08-18T07:17:39.186Z,16.43
2018-08-18T07:18:49.051Z,16.5
2018-08-18T07:19:58.089Z,16.49
2018-08-18T07:21:07.671Z,16.52
2018-08-18T07:22:17.794Z,16.6
2018-08-18T07:23:27.375Z,16.61
2018-08-18T07:24:37.491Z,16.78
2018-08-18T07:25:47.330Z,16.7
2018-08-18T07:26:56.902Z,16.79
2018-08-18T07:28:05.951Z,16.94
2018-08-18T07:29:16.093Z,16.91
2018-08-18T07:30:25.682Z,17.08
2018-08-18T07:31:35.539Z,17.03
2018-08-18T07:32:45.652Z,17.04
2018-08-18T07:33:54.960Z,17.19
2018-08-18T07:35:04.270Z,17.33
2018-08-18T07:36:13.855Z,17.34
2018-08-18T07:37:24.076Z,17.43
2018-08-18T07:38:33.867Z,17.44
2018-08-18T07:39:43.506Z,17.54
2018-08-18T07:40:53.360Z,17.63
2018-08-18T07:42:02.950Z,17.62
2018-08-18T07:43:12.804Z,17.56
2018-08-18T07:44:22.387Z,17.68
2018-08-18T07:45:31.434Z,17.79
2018-08-18T07:46:41.548Z,17.75
2018-08-18T07:47:50.582Z,17.78
2018-08-18T07:49:00.480Z,17.9
2018-08-18T07:50:10.102Z,17.95
2018-08-18T07:51:19.950Z,18.05
2018-08-18T07:52:29.791Z,18.2
2018-08-18T07:53:39.488Z,18.27
2018-08-18T07:54:49.399Z,18.21
2018-08-18T07:55:59.242Z,18.27
2018-08-18T07:57:08.540Z,18.29
2018-08-18T07:58:18.653Z,18.32
2018-08-18T07:59:28.508Z,18.41
2018-08-18T08:00:38.373Z,18.39
2018-08-18T08:01:48.503Z,18.51
2018-08-18T08:02:58.086Z,18.54
2018-08-18T08:04:08.217Z,18.75
2018-08-18T08:05:17.724Z,18.66
2018-08-18T08:06:27.296Z,18.76
2018-08-18T08:07:36.599Z,18.84
2018-08-18T08:08:46.176Z,18.87
2018-08-18T08:09:56.022Z,18.85
2018-08-18T08:11:05.861Z,18.95
2018-08-18T08:12:15.171Z,18.95
2018-08-18T08:13:24.538Z,19.04
2018-08-18T08:14:34.411Z,18.95
2018-08-18T08:15:44.527Z,19.02
2018-08-18T08:16:54.108Z,19.06
2018-08-18T08:18:04.266Z,19.18
2018-08-18T08:19:14.180Z,19.23
2018-08-18T08:20:23.762Z,19.22
2018-08-18T08:21:33.614Z,19.26
2018-08-18T08:22:43.465Z,19.32
2018-08-18T08:23:53.306Z,19.39
2018-08-18T08:25:03.160Z,19.32
2018-08-18T08:26:12.472Z,19.37
2018-08-18T08:27:21.782Z,19.4
2018-08-18T08:28:31.370Z,19.51
2018-08-18T08:29:40.675Z,19.39
2018-08-18T08:30:50.790Z,19.44
2018-08-18T08:32:00.945Z,19.39
2018-08-18T08:33:10.776Z,19.41
2018-08-18T08:34:20.453Z,19.5
2018-08-18T08:35:29.795Z,19.56
2018-08-18T08:36:39.388Z,19.59
2018-08-18T08:37:49.690Z,19.63
2018-08-18T08:38:59.272Z,19.58
2018-08-18T08:40:09.128Z,19.61
2018-08-18T08:41:18.975Z,19.61
2018-08-18T08:42:29.081Z,19.76
2018-08-18T08:43:38.925Z,19.74
2018-08-18T08:44:48.774Z,19.76
2018-08-18T08:45:58.881Z,19.8
2018-08-18T08:47:08.727Z,19.86
2018-08-18T08:48:18.578Z,19.84
2018-08-18T08:49:28.152Z,19.83
2018-08-18T08:50:37.239Z,19.94
2018-08-18T08:51:46.816Z,19.87
2018-08-18T08:52:56.671Z,19.96
2018-08-18T08:54:06.514Z,19.98
2018-08-18T08:55:16.088Z,20.05
2018-08-18T08:56:25.718Z,20.11
2018-08-18T08:57:35.560Z,20.08
2018-08-18T08:58:45.180Z,20.11
2018-08-18T08:59:55.434Z,20.13
2018-08-18T09:01:05.556Z,20.23
2018-08-18T09:02:15.133Z,20.28
2018-08-18T09:03:24.707Z,20.32
2018-08-18T09:04:34.278Z,20.33
2018-08-18T09:05:43.586Z,20.42
2018-08-18T09:06:53.173Z,20.42
2018-08-18T09:08:03.081Z,20.47
2018-08-18T09:09:12.925Z,20.35
2018-08-18T09:10:22.749Z,20.5
2018-08-18T09:11:32.797Z,20.5
2018-08-18T09:12:42.647Z,20.5
2018-08-18T09:13:52.486Z,20.39
2018-08-18T09:15:01.791Z,20.52
2018-08-18T09:16:11.366Z,20.39
2018-08-18T09:17:20.662Z,20.38
2018-08-18T09:18:30.777Z,20.48
2018-08-18T09:19:40.351Z,20.62
2018-08-18T09:20:50.473Z,20.57
2018-08-18T09:22:00.319Z,20.47
2018-08-18T09:23:09.351Z,20.61
2018-08-18T09:24:19.468Z,20.59
2018-08-18T09:25:29.320Z,20.7
2018-08-18T09:26:39.597Z,20.82
2018-08-18T09:27:49.454Z,20.79
2018-08-18T09:28:59.034Z,20.94
2018-08-18T09:30:08.617Z,20.91
2018-08-18T09:31:17.658Z,20.74
2018-08-18T09:32:27.241Z,20.91
2018-08-18T09:33:37.083Z,20.95
2018-08-18T09:34:46.663Z,20.91
2018-08-18T09:35:55.972Z,20.94
2018-08-18T09:37:06.097Z,20.98
2018-08-18T09:38:15.674Z,21.01
2018-08-18T09:39:24.992Z,21.12
2018-08-18T09:40:34.839Z,21.14
2018-08-18T09:41:44.681Z,21.28
2018-08-18T09:42:54.520Z,21.28
2018-08-18T09:44:03.832Z,21.25
2018-08-18T09:45:13.947Z,21.29
2018-08-18T09:46:24.505Z,21.34
2018-08-18T09:47:34.557Z,21.34
2018-08-18T09:48:44.404Z,21.32
2018-08-18T09:49:54.262Z,21.29
2018-08-18T09:51:04.112Z,21.35
2018-08-18T09:52:13.963Z,21.38
2018-08-18T09:53:24.080Z,21.44
2018-08-18T09:54:33.664Z,21.35
2018-08-18T09:55:42.430Z,21.34
2018-08-18T09:56:52.554Z,21.29
2018-08-18T09:58:02.133Z,21.31
2018-08-18T09:59:11.790Z,21.43
2018-08-18T10:00:21.502Z,21.5
2018-08-18T10:01:31.617Z,21.5
2018-08-18T10:02:40.920Z,21.64
2018-08-18T10:03:50.497Z,21.61
2018-08-18T10:04:59.803Z,21.72
2018-08-18T10:06:09.112Z,21.75
2018-08-18T10:07:19.302Z,21.72
2018-08-18T10:08:28.340Z,21.79
2018-08-18T10:09:37.645Z,21.8
2018-08-18T10:10:47.495Z,21.86
2018-08-18T10:11:57.344Z,21.8
2018-08-18T10:13:06.650Z,21.82
2018-08-18T10:14:15.960Z,21.64
2018-08-18T10:15:26.120Z,21.75
2018-08-18T10:16:34.843Z,21.8
2018-08-18T10:17:44.693Z,21.79
2018-08-18T10:18:54.840Z,21.75
2018-08-18T10:20:04.145Z,21.8
2018-08-18T10:21:13.991Z,21.88
2018-08-18T10:22:23.298Z,21.92
2018-08-18T10:23:32.870Z,21.91
2018-08-18T10:24:42.172Z,22
2018-08-18T10:25:51.760Z,22
2018-08-18T10:27:01.877Z,22.02
2018-08-18T10:28:11.188Z,22.06
2018-08-18T10:29:20.760Z,22.15
2018-08-18T10:30:30.610Z,22.2
2018-08-18T10:31:40.240Z,22.15
2018-08-18T10:32:49.547Z,22.06
2018-08-18T10:33:59.123Z,22.18
2018-08-18T10:35:08.433Z,22.2
2018-08-18T10:36:18.276Z,22.21
2018-08-18T10:37:27.854Z,22.1
2018-08-18T10:38:37.170Z,22.07
2018-08-18T10:39:47.021Z,22.18
2018-08-18T10:40:56.878Z,22.15
2018-08-18T10:42:06.920Z,22.33
2018-08-18T10:43:17.453Z,22.31
2018-08-18T10:44:27.027Z,22.36
2018-08-18T10:45:36.876Z,22.39
2018-08-18T10:46:46.729Z,22.49
2018-08-18T10:47:56.318Z,22.51
2018-08-18T10:49:05.907Z,22.64
2018-08-18T10:50:15.751Z,22.6
2018-08-18T10:51:25.601Z,22.61
2018-08-18T10:52:34.936Z,22.72
2018-08-18T10:53:44.511Z,22.76
2018-08-18T10:54:53.547Z,22.67
2018-08-18T10:56:02.858Z,22.77
2018-08-18T10:57:12.440Z,22.79
2018-08-18T10:58:22.014Z,22.75
2018-08-18T10:59:31.411Z,22.76
2018-08-18T11:00:40.450Z,22.76
2018-08-18T11:01:49.761Z,22.75
2018-08-18T11:02:59.336Z,22.73
2018-08-18T11:04:08.671Z,22.73
2018-08-18T11:05:18.846Z,22.8
2018-08-18T11:06:28.698Z,22.83
2018-08-18T11:07:38.541Z,22.85
2018-08-18T11:08:48.664Z,22.72
2018-08-18T11:09:58.239Z,22.79
2018-08-18T11:11:08.090Z,22.8
2018-08-18T11:12:18.206Z,22.95
2018-08-18T11:13:27.508Z,23
2018-08-18T11:14:37.089Z,22.97
2018-08-18T11:15:46.122Z,23.01
2018-08-18T11:16:55.967Z,23.15
2018-08-18T11:18:05.294Z,23.2
2018-08-18T11:19:15.152Z,23.17
2018-08-18T11:20:24.997Z,23.22
2018-08-18T11:21:34.576Z,23.19
2018-08-18T11:22:44.149Z,23.43
2018-08-18T11:23:53.457Z,23.4
2018-08-18T11:25:03.302Z,23.53
2018-08-18T11:26:12.615Z,23.58
2018-08-18T11:27:22.454Z,23.54
2018-08-18T11:28:32.247Z,23.4
2018-08-18T11:29:42.385Z,23.39
2018-08-18T11:30:52.506Z,23.58
2018-08-18T11:32:02.621Z,23.63
2018-08-18T11:33:12.199Z,23.6
2018-08-18T11:34:22.045Z,23.5
2018-08-18T11:35:31.632Z,23.69
2018-08-18T11:36:40.676Z,23.78
2018-08-18T11:37:49.715Z,23.87
2018-08-18T11:38:59.023Z,23.93
2018-08-18T11:40:07.840Z,23.94
2018-08-18T11:41:17.418Z,24.03
2018-08-18T11:42:26.997Z,24.05
2018-08-18T11:43:37.116Z,24.08
2018-08-18T11:44:46.699Z,24.06
2018-08-18T11:45:56.547Z,24.15
2018-08-18T11:47:07.035Z,24.21
2018-08-18T11:48:17.005Z,24.37
2018-08-18T11:49:26.045Z,24.5
2018-08-18T11:50:35.630Z,24.5
2018-08-18T11:51:45.274Z,24.6
2018-08-18T11:52:55.128Z,24.58
2018-08-18T11:54:05.040Z,24.4
2018-08-18T11:55:14.630Z,24.31
2018-08-18T11:56:24.486Z,24.43
2018-08-18T11:57:34.061Z,24.43
2018-08-18T11:58:43.917Z,24.49
2018-08-18T11:59:53.504Z,24.47
2018-08-18T12:01:03.179Z,24.2
2018-08-18T12:02:13.220Z,24.06
2018-08-18T12:03:22.580Z,24.09
2018-08-18T12:04:32.424Z,24.2
2018-08-18T12:05:41.732Z,24.34
2018-08-18T12:06:51.345Z,24.06
2018-08-18T12:08:01.200Z,24.35
2018-08-18T12:09:11.104Z,24.27
2018-08-18T12:10:20.958Z,24.39
2018-08-18T12:11:30.628Z,24.39
2018-08-18T12:12:39.950Z,24.65
2018-08-18T12:13:49.284Z,24.78
2018-08-18T12:14:58.871Z,24.96
2018-08-18T12:16:08.452Z,25.02
2018-08-18T12:17:18.298Z,24.8
2018-08-18T12:18:28.420Z,24.84
2018-08-18T12:19:37.465Z,24.81
2018-08-18T12:20:46.782Z,24.88
2018-08-18T12:21:56.627Z,25.14
2018-08-18T12:23:06.211Z,25.28
2018-08-18T12:24:15.797Z,25.35
2018-08-18T12:25:25.708Z,25.39
2018-08-18T12:26:35.581Z,25.45
2018-08-18T12:27:45.165Z,25.52
2018-08-18T12:28:54.753Z,25.51
2018-08-18T12:30:04.361Z,25.76
2018-08-18T12:31:14.445Z,25.83
2018-08-18T12:32:24.318Z,25.62
2018-08-18T12:33:34.176Z,26.05
2018-08-18T12:34:44.034Z,26.09
2018-08-18T12:35:53.626Z,26.28
2018-08-18T12:37:03.220Z,26.28
2018-08-18T12:38:12.520Z,26.37
2018-08-18T12:39:22.107Z,26.28
2018-08-18T12:40:31.966Z,26.39
2018-08-18T12:41:41.819Z,26.44
2018-08-18T12:42:51.946Z,26.17
2018-08-18T12:44:01.528Z,26.21
2018-08-18T12:45:11.113Z,26.07
2018-08-18T12:46:20.710Z,25.95
2018-08-18T12:47:30.564Z,26.05
2018-08-18T12:48:40.691Z,26.12
2018-08-18T12:49:50.839Z,26.17
2018-08-18T12:51:00.897Z,25.8
2018-08-18T12:52:10.759Z,26.02
2018-08-18T12:53:20.351Z,26.3
2018-08-18T12:54:30.205Z,26.33
2018-08-18T12:55:39.794Z,26.32
2018-08-18T12:56:49.646Z,26.32
2018-08-18T12:57:59.766Z,26.33
2018-08-18T12:59:09.362Z,26.33
2018-08-18T13:00:19.214Z,26.28
2018-08-18T13:01:28.795Z,26.37
2018-08-18T13:02:38.111Z,26.33
2018-08-18T13:03:47.965Z,26.4
2018-08-18T13:04:57.820Z,26.36
2018-08-18T13:06:07.400Z,26.51
2018-08-18T13:07:17.524Z,26.66
2018-08-18T13:08:27.105Z,26.39
2018-08-18T13:09:36.956Z,26.36
2018-08-18T13:10:46.536Z,26.4
2018-08-18T13:11:56.125Z,26.4
2018-08-18T13:13:05.983Z,26.35
2018-08-18T13:14:15.623Z,26.33
2018-08-18T13:15:25.605Z,26.29
2018-08-18T13:16:35.189Z,26.02
2018-08-18T13:17:44.774Z,26.02
2018-08-18T13:18:54.891Z,26.13
2018-08-18T13:20:04.746Z,26.39
2018-08-18T13:21:13.787Z,26.6
2018-08-18T13:22:23.364Z,26.67
2018-08-18T13:23:32.952Z,26.66
2018-08-18T13:24:42.542Z,26.77
2018-08-18T13:25:52.123Z,26.72
2018-08-18T13:27:01.978Z,26.77
2018-08-18T13:28:11.295Z,26.57
2018-08-18T13:29:20.880Z,26.43
2018-08-18T13:30:30.736Z,26.66
2018-08-18T13:31:40.587Z,26.8
2018-08-18T13:32:50.505Z,26.76
2018-08-18T13:34:00.357Z,26.37
2018-08-18T13:35:09.400Z,26.58
2018-08-18T13:36:18.445Z,26.7
2018-08-18T13:37:27.762Z,26.84
2018-08-18T13:38:37.664Z,27.02
2018-08-18T13:39:47.801Z,27.18
2018-08-18T13:40:57.923Z,27.07
2018-08-18T13:42:07.780Z,27.27
2018-08-18T13:43:17.363Z,27.19
2018-08-18T13:44:26.949Z,27.29
2018-08-18T13:45:36.533Z,27.28
2018-08-18T13:46:46.647Z,27.29
2018-08-18T13:47:57.088Z,27.25
2018-08-18T13:49:06.943Z,27.17
2018-08-18T13:50:16.796Z,27.13
2018-08-18T13:51:26.114Z,27.19
2018-08-18T13:52:35.773Z,27.25
2018-08-18T13:53:45.875Z,27.25
2018-08-18T13:54:56.010Z,27.36
2018-08-18T13:56:05.881Z,27.55
2018-08-18T13:57:15.731Z,27.31
2018-08-18T13:58:25.312Z,27.18
2018-08-18T13:59:34.898Z,27.44
2018-08-18T14:00:44.755Z,27.85
2018-08-18T14:01:54.610Z,28.12
2018-08-18T14:03:04.193Z,27.7
2018-08-18T14:04:14.052Z,27.87
2018-08-18T14:05:24.216Z,27.88
2018-08-18T14:06:33.812Z,27.87
2018-08-18T14:07:43.132Z,27.85
2018-08-18T14:08:52.993Z,27.59
2018-08-18T14:10:02.853Z,27.77
2018-08-18T14:11:12.688Z,27.7
2018-08-18T14:12:22.278Z,27.87
2018-08-18T14:13:32.130Z,27.9
2018-08-18T14:14:41.710Z,27.79
2018-08-18T14:15:51.028Z,27.69
2018-08-18T14:17:00.887Z,27.47
2018-08-18T14:18:10.200Z,27.66
2018-08-18T14:19:19.837Z,27.77
2018-08-18T14:20:29.158Z,28
2018-08-18T14:21:38.743Z,27.96
2018-08-18T14:22:48.055Z,27.88
2018-08-18T14:23:58.182Z,28.03
2018-08-18T14:25:07.500Z,28.09
2018-08-18T14:26:17.625Z,27.94
2018-08-18T14:27:27.211Z,27.94
2018-08-18T14:28:37.287Z,27.85
2018-08-18T14:29:46.345Z,27.96
2018-08-18T14:30:56.198Z,27.81
2018-08-18T14:32:06.051Z,27.9
2018-08-18T14:33:15.639Z,28.09
2018-08-18T14:34:25.292Z,28.22
2018-08-18T14:35:34.728Z,28.3
2018-08-18T14:36:44.582Z,28.37
2018-08-18T14:37:54.699Z,28.33
2018-08-18T14:39:04.286Z,28.43
2018-08-18T14:40:14.141Z,28.37
2018-08-18T14:41:23.461Z,28.4
2018-08-18T14:42:33.322Z,28.56
2018-08-18T14:43:42.913Z,28.58
2018-08-18T14:44:53.438Z,28.76
2018-08-18T14:46:03.562Z,28.68
2018-08-18T14:47:13.152Z,28.74
2018-08-18T14:48:23.293Z,28.81
2018-08-18T14:49:32.884Z,28.89
2018-08-18T14:50:42.744Z,28.85
2018-08-18T14:51:52.335Z,28.95
2018-08-18T14:53:02.482Z,29.12
2018-08-18T14:54:12.197Z,29.02
2018-08-18T14:55:22.851Z,28.95
2018-08-18T14:56:32.444Z,29.24
2018-08-18T14:57:42.026Z,29.28
2018-08-18T14:58:52.227Z,29.51
2018-08-18T15:00:02.085Z,29.63
2018-08-18T15:01:12.216Z,29.79
2018-08-18T15:02:22.069Z,29.53